createdAt,value
2022-10-28T00:04:00.229Z,2.85
2022-10-28T00:08:51.889Z,3.33
2022-10-28T00:13:44.598Z,3.03
2022-10-28T00:18:37.052Z,3.13
2022-10-28T00:23:28.824Z,3.60
2022-10-28T00:28:20.529Z,3.25
2022-10-28T00:33:12.257Z,2.92
2022-10-28T00:38:03.831Z,3.20
2022-10-28T00:42:55.940Z,3.00
2022-10-28T00:47:52.629Z,4.03
2022-10-28T00:52:49.513Z,2.97
2022-10-28T00:57:42.405Z,3.08
2022-10-28T01:02:42.114Z,2.88
2022-10-28T01:07:33.708Z,3.58
2022-10-28T01:13:09.468Z,3.45
2022-10-28T01:18:25.611Z,2.85
2022-10-28T01:24:05.415Z,3.42
2022-10-28T01:29:40.428Z,2.88
2022-10-28T01:34:44.504Z,2.72
2022-10-28T01:40:03.561Z,2.30
2022-10-28T01:45:07.044Z,2.45
2022-10-28T01:50:18.932Z,2.90
2022-10-28T01:55:20.357Z,2.80
2022-10-28T02:00:12.787Z,1.42
2022-10-28T02:05:24.171Z,1.55
2022-10-28T02:10:25.130Z,1.98
2022-10-28T02:15:34.926Z,1.33
2022-10-28T02:20:38.748Z,1.95
2022-10-28T02:25:41.637Z,2.22
2022-10-28T02:30:44.587Z,1.50
2022-10-28T02:35:43.011Z,1.73
2022-10-28T02:40:38.221Z,1.48
2022-10-28T02:45:40.620Z,2.08
2022-10-28T02:50:40.416Z,1.58
2022-10-28T02:55:40.125Z,1.50
2022-10-28T03:00:31.885Z,2.20
2022-10-28T03:05:23.557Z,1.20
2022-10-28T03:10:15.429Z,1.42
2022-10-28T03:15:07.687Z,1.08
2022-10-28T03:19:59.556Z,1.25
2022-10-28T03:24:51.289Z,1.23
2022-10-28T03:29:45.758Z,2.42
2022-10-28T03:34:38.041Z,1.77
2022-10-28T03:39:29.797Z,0.90
2022-10-28T03:44:21.421Z,1.95
2022-10-28T03:49:13.067Z,1.40
2022-10-28T03:54:04.812Z,0.90
2022-10-28T03:58:56.465Z,1.10
2022-10-28T04:03:48.272Z,1.50
2022-10-28T04:08:40.068Z,1.23
2022-10-28T04:13:31.765Z,1.30
2022-10-28T04:18:23.337Z,1.55
2022-10-28T04:23:18.288Z,1.20
2022-10-28T04:28:09.988Z,1.10
2022-10-28T04:33:01.617Z,1.10
2022-10-28T04:37:53.382Z,0.95
2022-10-28T04:42:45.164Z,1.20
2022-10-28T04:47:36.814Z,1.02
2022-10-28T04:52:28.478Z,0.98
2022-10-28T04:57:20.139Z,1.33
2022-10-28T05:02:12.060Z,2.30
2022-10-28T05:07:03.825Z,2.53
2022-10-28T05:11:55.494Z,1.88
2022-10-28T05:16:47.149Z,1.88
2022-10-28T05:21:38.770Z,1.80
2022-10-28T05:26:30.426Z,1.95
2022-10-28T05:31:22.127Z,2.08
2022-10-28T05:36:13.805Z,1.75
2022-10-28T05:41:05.832Z,2.70
2022-10-28T05:45:58.298Z,2.35
2022-10-28T05:50:50.059Z,1.10
2022-10-28T05:55:46.644Z,1.08
2022-10-28T06:05:31.180Z,0.77
2022-10-28T06:10:22.946Z,0.90
2022-10-28T06:15:13.044Z,1.00
2022-10-28T06:20:05.543Z,0.82
2022-10-28T06:24:57.175Z,1.20
2022-10-28T06:29:48.831Z,0.80
2022-10-28T06:34:40.503Z,1.25
2022-10-28T06:39:32.951Z,0.70
2022-10-28T06:44:24.705Z,0.80
2022-10-28T06:49:17.834Z,1.05
2022-10-28T06:54:09.773Z,1.00
2022-10-28T06:59:01.432Z,1.02
2022-10-28T07:03:53.407Z,0.82
2022-10-28T07:08:45.058Z,0.98
2022-10-28T07:13:36.828Z,0.80
2022-10-28T07:18:30.040Z,0.60
2022-10-28T07:23:21.692Z,0.60
2022-10-28T07:28:13.339Z,0.25
2022-10-28T07:33:05.928Z,0.10
2022-10-28T07:37:58.830Z,0.20
2022-10-28T07:42:51.137Z,0.10
2022-10-28T07:47:43.290Z,0.15
2022-10-28T07:52:36.286Z,0.10
2022-10-28T07:57:27.953Z,0.10
2022-10-28T08:02:23.017Z,0.10
2022-10-28T08:07:16.023Z,0.20
2022-10-28T08:12:09.266Z,0.10
2022-10-28T08:17:01.020Z,0.10
2022-10-28T08:21:52.820Z,0.10
2022-10-28T08:26:44.572Z,0.08
2022-10-28T08:31:36.426Z,0.10
2022-10-28T08:36:28.563Z,0.00
2022-10-28T08:41:42.144Z,0.10
2022-10-28T08:46:33.995Z,0.10
2022-10-28T08:51:38.947Z,0.00
2022-10-28T08:56:48.623Z,0.10
2022-10-28T09:01:44.137Z,0.00
2022-10-28T09:06:35.956Z,0.10
2022-10-28T09:11:39.426Z,0.00
2022-10-28T09:16:40.143Z,0.10
2022-10-28T09:22:19.970Z,0.00
2022-10-28T09:27:22.394Z,0.10
2022-10-28T09:32:22.985Z,0.00
2022-10-28T09:37:35.836Z,0.00
2022-10-28T09:42:38.210Z,0.05
2022-10-28T09:47:36.727Z,0.10
2022-10-28T09:52:39.338Z,0.00
2022-10-28T09:57:32.097Z,0.00
2022-10-28T10:02:32.447Z,0.20
2022-10-28T10:07:41.586Z,0.00
2022-10-28T10:12:34.068Z,0.10
2022-10-28T10:17:45.865Z,0.20
2022-10-28T10:22:42.667Z,0.20
2022-10-28T10:27:34.477Z,0.07
2022-10-28T10:32:30.193Z,0.10
2022-10-28T10:37:23.790Z,0.10
2022-10-28T10:42:20.378Z,0.20
2022-10-28T10:47:13.434Z,0.40
2022-10-28T10:52:15.839Z,0.10
2022-10-28T10:57:09.393Z,0.10
2022-10-28T11:02:01.231Z,0.20
2022-10-28T11:06:57.993Z,0.10
2022-10-28T11:11:49.687Z,0.20
2022-10-28T11:16:50.509Z,0.30
2022-10-28T11:21:56.430Z,0.20
2022-10-28T11:27:08.668Z,0.20
2022-10-28T11:32:30.404Z,0.20
2022-10-28T11:37:46.663Z,0.20
2022-10-28T11:43:00.220Z,0.20
2022-10-28T11:48:23.008Z,0.10
2022-10-28T11:53:30.154Z,0.20
2022-10-28T11:59:18.820Z,0.10
2022-10-28T12:04:27.173Z,0.00
2022-10-28T12:09:21.956Z,0.20
2022-10-28T12:14:25.472Z,0.20
2022-10-28T12:19:27.291Z,0.10
2022-10-28T12:24:22.702Z,0.10
2022-10-28T12:29:38.794Z,0.10
2022-10-28T12:39:34.916Z,0.10
2022-10-28T12:44:28.330Z,0.20
2022-10-28T12:49:23.585Z,0.10
2022-10-28T12:54:42.201Z,0.20
2022-10-28T12:59:47.680Z,0.10
2022-10-28T13:04:39.516Z,0.13
2022-10-28T13:09:39.546Z,0.10
2022-10-28T13:14:54.396Z,0.10
2022-10-28T13:20:07.793Z,0.20
2022-10-28T13:25:23.309Z,0.10
2022-10-28T13:30:19.963Z,0.43
2022-10-28T13:35:20.519Z,0.10
2022-10-28T13:40:22.918Z,0.13
2022-10-28T13:45:50.217Z,0.40
2022-10-28T13:50:42.085Z,0.13
2022-10-28T13:55:44.116Z,0.20
2022-10-28T14:00:37.584Z,0.30
2022-10-28T14:05:38.273Z,0.20
2022-10-28T14:10:38.439Z,0.20
2022-10-28T14:15:38.342Z,0.20
2022-10-28T14:20:50.331Z,0.30
2022-10-28T14:25:41.884Z,0.20
2022-10-28T14:30:33.607Z,0.32
2022-10-28T14:35:39.764Z,0.30
2022-10-28T14:40:50.795Z,0.20
2022-10-28T14:46:10.094Z,0.20
2022-10-28T14:51:02.973Z,0.25
2022-10-28T14:55:59.935Z,0.30
2022-10-28T15:01:03.713Z,0.30
2022-10-28T15:05:56.320Z,0.20
2022-10-28T15:10:49.871Z,0.20
2022-10-28T15:15:52.862Z,0.20
2022-10-28T15:20:44.486Z,0.35
2022-10-28T15:25:36.158Z,0.60
2022-10-28T15:30:27.933Z,0.30
2022-10-28T15:35:29.943Z,0.40
2022-10-28T15:40:27.614Z,0.20
2022-10-28T15:45:24.563Z,0.35
2022-10-28T15:50:16.097Z,0.40
2022-10-28T15:55:23.745Z,0.40
2022-10-28T16:00:29.017Z,0.30
2022-10-28T16:05:33.064Z,0.30
2022-10-28T16:10:34.833Z,0.30
2022-10-28T16:15:26.551Z,0.35
2022-10-28T16:20:23.654Z,0.40
2022-10-28T16:25:18.307Z,0.40
2022-10-28T16:30:10.748Z,0.50
2022-10-28T16:35:02.898Z,0.47
2022-10-28T16:39:55.625Z,0.38
2022-10-28T16:44:47.293Z,0.75
2022-10-28T16:49:39.021Z,0.40
2022-10-28T16:54:30.808Z,0.65
2022-10-28T16:59:22.527Z,0.60
2022-10-28T17:04:14.224Z,1.60
2022-10-28T17:09:05.988Z,0.70
2022-10-28T17:13:57.735Z,0.70
2022-10-28T17:18:50.122Z,0.75
2022-10-28T17:23:41.750Z,0.50
2022-10-28T17:28:33.371Z,0.50
2022-10-28T17:33:25.435Z,0.50
2022-10-28T17:38:17.059Z,0.50
2022-10-28T17:43:08.729Z,0.40
2022-10-28T17:48:00.419Z,0.50
2022-10-28T17:52:53.458Z,0.50
2022-10-28T17:57:45.655Z,0.70
2022-10-28T18:02:37.407Z,0.80
2022-10-28T18:07:29.205Z,0.90
2022-10-28T18:12:20.842Z,0.60
2022-10-28T18:17:14.412Z,0.50
2022-10-28T18:22:06.155Z,0.40
2022-10-28T18:26:57.832Z,0.55
2022-10-28T18:31:49.851Z,0.70
2022-10-28T18:36:41.686Z,0.50
2022-10-28T18:41:38.031Z,0.40
2022-10-28T18:46:31.981Z,0.40
2022-10-28T18:51:24.256Z,0.50
2022-10-28T18:56:21.458Z,0.70
2022-10-28T19:01:16.405Z,0.40
2022-10-28T19:06:14.065Z,0.43
2022-10-28T19:11:07.042Z,0.75
2022-10-28T19:15:59.576Z,0.70
2022-10-28T19:20:52.149Z,1.33
2022-10-28T19:25:44.795Z,0.70
2022-10-28T19:30:39.937Z,0.50
2022-10-28T19:35:33.029Z,0.93
2022-10-28T19:40:25.015Z,0.60
2022-10-28T19:45:16.762Z,1.05
2022-10-28T19:50:09.134Z,0.60
2022-10-28T19:55:00.744Z,0.82
2022-10-28T19:59:52.480Z,0.50
2022-10-28T20:04:45.039Z,0.40
2022-10-28T20:09:36.721Z,0.40
2022-10-28T20:14:28.362Z,0.50
2022-10-28T20:19:20.055Z,0.90
2022-10-28T20:24:11.710Z,0.43
2022-10-28T20:29:03.419Z,1.90
2022-10-28T20:33:58.508Z,0.75
2022-10-28T20:38:58.407Z,0.73
2022-10-28T20:43:51.787Z,0.40
2022-10-28T20:48:43.564Z,0.60
2022-10-28T20:53:36.271Z,0.60
2022-10-28T20:58:30.186Z,0.52
2022-10-28T21:03:22.066Z,0.65
2022-10-28T21:08:14.143Z,0.50
2022-10-28T21:13:06.734Z,0.50
2022-10-28T21:17:58.475Z,0.60
2022-10-28T21:22:50.396Z,0.55
2022-10-28T21:27:42.020Z,0.50
2022-10-28T21:32:37.259Z,0.60
2022-10-28T21:37:28.900Z,0.70
2022-10-28T21:42:20.668Z,1.05
2022-10-28T21:47:12.552Z,0.90
2022-10-28T21:52:04.449Z,0.80
2022-10-28T21:56:56.220Z,0.88
2022-10-28T22:01:48.191Z,0.98
2022-10-28T22:06:40.066Z,0.50
2022-10-28T22:11:31.721Z,0.50
2022-10-28T22:16:23.364Z,0.77
2022-10-28T22:21:24.736Z,0.77
2022-10-28T22:26:21.832Z,2.25
2022-10-28T22:31:16.310Z,1.20
2022-10-28T22:36:13.682Z,1.05
2022-10-28T22:41:07.995Z,0.75
2022-10-28T22:46:00.153Z,1.00
2022-10-28T22:50:52.294Z,0.80
2022-10-28T22:55:44.161Z,0.90
2022-10-28T23:00:36.044Z,0.90
2022-10-28T23:05:27.749Z,0.88
2022-10-28T23:10:19.398Z,0.60
2022-10-28T23:15:11.297Z,1.17
2022-10-28T23:20:04.010Z,0.80
2022-10-28T23:24:55.678Z,1.00
2022-10-28T23:29:47.256Z,0.80
2022-10-28T23:34:38.930Z,0.90
2022-10-28T23:39:30.691Z,1.13
2022-10-28T23:44:22.329Z,0.90
2022-10-28T23:49:13.942Z,0.98
2022-10-28T23:54:05.702Z,1.23
2022-10-28T23:58:57.433Z,0.70
